Time;durP1;ratioP1;P1;durP2;ratioP2;P2;SDS_P1;SDS_P2;PMS_P1;PMS_P2;Temp;Humidity;BMP_temperature;BMP_pressure;BME280_temperature;BME280_humidity;BME280_pressure;Samples;Min_cycle;Max_cycle;Signal;HPM_P1;HPM_P2
2021/08/27 00:00:25;;;;;;;25.63;8.50;;;;;;;19.64;100.00;94411.56;5072598;28;20476;-81
2021/08/27 00:02:52;;;;;;;8.63;7.80;;;;;;;19.65;100.00;94399.91;5072765;28;20469;-81
2021/08/27 00:05:20;;;;;;;13.40;10.20;;;;;;;19.69;100.00;94401.19;5072446;28;20531;-81
2021/08/27 00:07:47;;;;;;;8.00;7.20;;;;;;;19.66;100.00;94409.56;5036973;28;20453;-81
2021/08/27 00:10:14;;;;;;;16.50;7.00;;;;;;;19.62;100.00;94407.47;5072318;28;20447;-81
2021/08/27 00:12:41;;;;;;;11.63;7.67;;;;;;;19.64;100.00;94411.56;5072233;28;20941;-81
2021/08/27 00:15:10;;;;;;;9.47;8.20;;;;;;;19.68;100.00;94409.38;5072268;28;20477;-81
2021/08/27 00:17:38;;;;;;;10.07;8.60;;;;;;;19.39;100.00;94418.38;5020547;28;20469;-81
2021/08/27 00:20:07;;;;;;;11.77;9.57;;;;;;;19.40;100.00;94422.69;5036667;28;20444;-81
2021/08/27 00:22:36;;;;;;;11.73;9.00;;;;;;;19.43;100.00;94425.78;5053600;28;20450;-81
2021/08/27 00:25:04;;;;;;;11.00;9.00;;;;;;;19.50;100.00;94417.84;5072591;28;20443;-81
2021/08/27 00:27:31;;;;;;;9.27;7.80;;;;;;;19.57;100.00;94417.88;5072327;28;20483;-81
2021/08/27 00:29:59;;;;;;;8.30;6.80;;;;;;;19.54;100.00;94416.44;5053207;28;20951;-81
2021/08/27 00:32:26;;;;;;;8.10;6.97;;;;;;;19.38;100.00;94424.72;5071974;28;20457;-81
2021/08/27 00:34:53;;;;;;;11.00;7.20;;;;;;;19.47;100.00;94415.56;5072045;28;20483;-81
2021/08/27 00:37:21;;;;;;;7.10;6.40;;;;;;;19.53;100.00;94419.28;5072029;28;20451;-81
2021/08/27 00:39:49;;;;;;;7.47;6.37;;;;;;;19.55;100.00;94418.09;5076008;28;20449;-81
2021/08/27 00:42:16;;;;;;;13.30;6.87;;;;;;;19.57;100.00;94425.88;5075659;28;20520;-82
2021/08/27 00:44:43;;;;;;;6.87;6.27;;;;;;;19.52;100.00;94423.78;5075880;28;20477;-83
2021/08/27 00:47:10;;;;;;;10.93;7.57;;;;;;;19.47;100.00;94427.03;5075808;28;20441;-83
2021/08/27 00:49:37;;;;;;;7.77;6.97;;;;;;;19.40;100.00;94426.19;5040321;28;20466;-82
2021/08/27 00:52:06;;;;;;;13.20;8.10;;;;;;;19.42;100.00;94418.00;5075541;28;20562;-83
2021/08/27 00:54:33;;;;;;;9.07;8.17;;;;;;;19.44;100.00;94416.78;5040617;28;20519;-82
2021/08/27 00:57:03;;;;;;;11.80;10.13;;;;;;;19.41;100.00;94422.50;5075567;28;20447;-83
2021/08/27 00:59:30;;;;;;;8.90;8.00;;;;;;;19.22;100.00;94422.34;5041136;28;20454;-83
2021/08/27 01:01:57;;;;;;;9.43;8.43;;;;;;;19.28;100.00;94422.41;5075783;28;20455;-82
2021/08/27 01:04:24;;;;;;;11.20;8.53;;;;;;;19.39;100.00;94418.38;5023683;28;20429;-82
2021/08/27 01:06:56;;;;;;;10.43;9.23;;;;;;;19.45;100.00;94417.59;5075542;28;20461;-82
2021/08/27 01:09:35;;;;;;;11.47;8.47;;;;;;;19.52;100.00;94431.75;5075292;28;20531;-83
2021/08/27 01:12:11;;;;;;;8.30;7.40;;;;;;;19.57;100.00;94432.03;5075154;28;21038;-83
2021/08/27 01:14:42;;;;;;;12.33;7.87;;;;;;;19.58;100.00;94435.50;5075145;28;20440;-82
2021/08/27 01:17:13;;;;;;;13.07;8.00;;;;;;;19.56;100.00;94427.72;5074993;28;20819;-83
2021/08/27 01:20:21;;;;;;;15.50;8.70;;;;;;;19.51;100.00;94419.47;5075248;28;20482;-82
2021/08/27 01:23:07;;;;;;;9.73;7.97;;;;;;;19.49;100.00;94409.03;5075129;28;20535;-83
2021/08/27 01:25:37;;;;;;;10.57;7.80;;;;;;;19.38;100.00;94398.94;5075004;28;20443;-83
2021/08/27 01:28:08;;;;;;;10.97;7.17;;;;;;;19.45;100.00;94393.66;5075283;28;20447;-83
2021/08/27 01:30:42;;;;;;;8.80;7.90;;;;;;;19.45;100.00;94407.78;5074970;28;20457;-84
2021/08/27 01:33:14;;;;;;;10.70;8.00;;;;;;;19.19;100.00;94403.13;5074829;28;20893;-83
2021/08/27 01:35:46;;;;;;;15.13;8.20;;;;;;;19.32;100.00;94412.19;5074684;28;20991;-83
2021/08/27 01:38:15;;;;;;;14.30;8.37;;;;;;;19.38;100.00;94417.56;5075059;28;20537;-83
2021/08/27 01:40:46;;;;;;;10.17;8.13;;;;;;;19.44;100.00;94426.59;5074937;28;20463;-83
2021/08/27 01:43:14;;;;;;;10.07;8.17;;;;;;;19.51;100.00;94419.47;5074927;28;20536;-83
2021/08/27 01:45:43;;;;;;;11.23;9.57;;;;;;;19.52;100.00;94421.13;5074800;28;20457;-83
2021/08/27 01:48:11;;;;;;;13.07;7.37;;;;;;;19.52;100.00;94420.28;5074734;28;20875;-83
2021/08/27 01:50:40;;;;;;;12.77;9.63;;;;;;;19.55;100.00;94418.09;5073751;28;20440;-83
2021/08/27 01:53:09;;;;;;;15.20;9.63;;;;;;;19.52;100.00;94418.44;5074420;28;20912;-83
2021/08/27 01:55:36;;;;;;;16.13;8.33;;;;;;;19.54;100.00;94423.59;5074582;28;20482;-83
2021/08/27 01:58:05;;;;;;;11.23;8.53;;;;;;;19.53;100.00;94419.28;5074535;28;20455;-83
2021/08/27 02:00:32;;;;;;;13.53;8.87;;;;;;;19.55;100.00;94419.94;5074617;28;20452;-83
2021/08/27 02:03:01;;;;;;;12.63;10.27;;;;;;;19.60;100.00;94425.47;5074434;28;20455;-83
2021/08/27 02:05:29;;;;;;;11.77;8.20;;;;;;;19.60;100.00;94426.31;5074210;28;20449;-83
2021/08/27 02:07:58;;;;;;;16.00;8.83;;;;;;;19.62;100.00;94434.91;5074234;28;20444;-83
2021/08/27 02:10:27;;;;;;;18.30;8.77;;;;;;;19.61;100.00;94457.22;5074453;28;20444;-83
2021/08/27 02:12:54;;;;;;;11.30;8.60;;;;;;;19.56;100.00;94457.00;5074359;28;20445;-83
2021/08/27 02:15:23;;;;;;;21.77;10.27;;;;;;;19.46;100.00;94424.56;5074055;28;20480;-82
2021/08/27 02:17:51;;;;;;;19.57;9.17;;;;;;;19.29;100.00;94409.91;5074204;28;20899;-82
2021/08/27 02:20:18;;;;;;;15.00;9.20;;;;;;;18.98;100.00;94426.28;5073854;28;20450;-82
2021/08/27 02:22:50;;;;;;;14.97;10.47;;;;;;;18.91;100.00;94417.44;5073832;28;20437;-82
2021/08/27 02:25:21;;;;;;;18.60;9.50;;;;;;;19.02;100.00;94424.88;5038828;28;20444;-83
2021/08/27 02:27:50;;;;;;;18.87;10.77;;;;;;;19.11;100.00;94411.25;5055055;28;20420;-83
2021/08/27 02:30:18;;;;;;;13.23;10.10;;;;;;;19.15;100.00;94409.84;5073991;28;20454;-82
2021/08/27 02:32:46;;;;;;;15.73;10.60;;;;;;;19.24;100.00;94417.66;5074160;28;20441;-83
2021/08/27 02:35:14;;;;;;;15.33;10.50;;;;;;;19.28;100.00;94416.25;5073621;28;20524;-83
2021/08/27 02:37:42;;;;;;;15.40;8.90;;;;;;;19.25;100.00;94417.47;5073574;28;20543;-83
2021/08/27 02:40:10;;;;;;;11.43;9.80;;;;;;;19.30;100.00;94424.84;5073453;28;20531;-83
2021/08/27 02:42:38;;;;;;;12.70;9.57;;;;;;;19.33;100.00;94427.13;5073573;28;20462;-83
2021/08/27 02:45:08;;;;;;;15.73;10.23;;;;;;;19.37;100.00;94431.88;5073843;28;20804;-82
2021/08/27 02:47:36;;;;;;;12.30;9.33;;;;;;;19.44;100.00;94423.94;5021946;28;20473;-83
2021/08/27 02:50:03;;;;;;;13.37;9.47;;;;;;;19.40;100.00;94409.38;5073598;28;20459;-83
2021/08/27 02:52:35;;;;;;;13.70;9.10;;;;;;;19.05;100.00;94412.00;5072981;28;20560;-82
2021/08/27 02:55:07;;;;;;;14.37;10.23;;;;;;;19.00;100.00;94410.94;5073317;28;20473;-82
2021/08/27 02:57:48;;;;;;;11.20;10.00;;;;;;;19.16;100.00;94415.97;5073653;28;20534;-83
2021/08/27 03:00:18;;;;;;;15.10;9.30;;;;;;;19.23;100.00;94414.19;5037973;28;20519;-83
2021/08/27 03:02:46;;;;;;;11.93;10.00;;;;;;;19.28;100.00;94405.63;5072983;28;20937;-83
2021/08/27 03:05:17;;;;;;;12.93;10.57;;;;;;;19.34;100.00;94408.31;5037585;28;20530;-83
2021/08/27 03:07:47;;;;;;;11.67;9.93;;;;;;;19.41;100.00;94416.34;5073101;28;20875;-83
2021/08/27 03:10:19;;;;;;;12.63;9.90;;;;;;;19.48;100.00;94418.03;5072941;28;20528;-83
2021/08/27 03:12:52;;;;;;;11.90;10.67;;;;;;;19.53;100.00;94414.81;5073046;28;20985;-83
2021/08/27 03:15:28;;;;;;;13.07;9.87;;;;;;;19.50;100.00;94415.16;5072938;28;20448;-83
2021/08/27 03:17:59;;;;;;;15.40;10.40;;;;;;;19.48;100.00;94417.22;5072731;28;21010;-82
2021/08/27 03:20:32;;;;;;;15.60;10.77;;;;;;;19.52;100.00;94423.78;5072817;28;20809;-83
2021/08/27 03:23:04;;;;;;;13.10;11.50;;;;;;;19.48;100.00;94425.19;5037549;28;20538;-83
2021/08/27 03:25:33;;;;;;;15.80;10.83;;;;;;;19.50;100.00;94407.19;5072887;28;20888;-83
2021/08/27 03:28:07;;;;;;;16.97;11.77;;;;;;;19.49;100.00;94408.19;5073155;28;20425;-83
2021/08/27 03:30:36;;;;;;;15.57;11.67;;;;;;;19.46;100.00;94404.09;5038156;28;20455;-83
2021/08/27 03:33:05;;;;;;;13.37;11.70;;;;;;;19.43;100.00;94399.16;5072839;28;20520;-83
2021/08/27 03:35:33;;;;;;;17.73;11.60;;;;;;;19.40;100.00;94404.06;5072836;28;20462;-83
2021/08/27 03:38:01;;;;;;;13.70;10.70;;;;;;;19.43;100.00;94415.13;5037174;28;20956;-82
2021/08/27 03:40:29;;;;;;;15.73;12.80;;;;;;;19.35;100.00;94414.44;5072729;28;20983;-83
2021/08/27 03:42:58;;;;;;;14.97;11.43;;;;;;;19.39;100.00;94410.41;5072569;28;20431;-82
2021/08/27 03:45:26;;;;;;;14.53;10.90;;;;;;;19.40;100.00;94398.75;5072516;28;20935;-82
2021/08/27 03:47:55;;;;;;;12.10;10.80;;;;;;;19.39;100.00;94407.75;5037378;28;20451;-82
2021/08/27 03:50:23;;;;;;;13.57;11.57;;;;;;;19.35;100.00;94417.94;5072489;28;20535;-82
2021/08/27 03:52:52;;;;;;;15.57;12.40;;;;;;;19.32;100.00;94422.81;5072233;28;20551;-82
2021/08/27 03:55:21;;;;;;;15.67;13.03;;;;;;;19.31;100.00;94418.53;5072274;28;21005;-83
2021/08/27 03:57:50;;;;;;;13.90;12.50;;;;;;;19.30;100.00;94414.22;5072303;28;21066;-82
2021/08/27 04:00:21;;;;;;;13.40;12.00;;;;;;;19.27;100.00;94420.75;5072470;28;20455;-83
2021/08/27 04:02:49;;;;;;;14.30;12.40;;;;;;;19.32;100.00;94428.16;5072278;28;20543;-83
2021/08/27 04:05:20;;;;;;;13.50;12.10;;;;;;;19.37;100.00;94441.69;5072508;28;20530;-82
2021/08/27 04:07:48;;;;;;;13.90;12.50;;;;;;;19.41;100.00;94427.00;5072474;28;20451;-83
2021/08/27 04:10:17;;;;;;;14.77;12.73;;;;;;;19.45;100.00;94430.91;5072521;28;20519;-82
2021/08/27 04:12:45;;;;;;;17.07;12.37;;;;;;;19.32;100.00;94425.47;5073121;28;20523;-83
2021/08/27 04:15:14;;;;;;;16.53;12.17;;;;;;;19.37;100.00;94425.72;5076521;28;20456;-83
2021/08/27 04:17:42;;;;;;;14.80;11.73;;;;;;;19.39;100.00;94432.50;5076494;28;20834;-83
2021/08/27 04:20:12;;;;;;;17.30;10.47;;;;;;;19.44;100.00;94430.09;5076278;28;20447;-83
2021/08/27 04:22:41;;;;;;;13.77;11.37;;;;;;;19.50;100.00;94436.47;5024534;28;20879;-83
2021/08/27 04:25:09;;;;;;;12.67;11.40;;;;;;;19.56;100.00;94435.69;5076479;28;20534;-83
2021/08/27 04:27:35;;;;;;;16.93;12.10;;;;;;;19.53;100.00;94430.78;5076600;28;20998;-83
2021/08/27 04:30:02;;;;;;;13.10;10.87;;;;;;;19.48;100.00;94435.84;5076456;28;20853;-83
2021/08/27 04:32:29;;;;;;;12.97;9.63;;;;;;;19.51;100.00;94435.44;5076294;28;20530;-83
2021/08/27 04:34:56;;;;;;;12.37;10.80;;;;;;;19.58;100.00;94446.97;5076198;28;20445;-83
2021/08/27 04:37:23;;;;;;;12.50;11.30;;;;;;;19.63;100.00;94446.38;5024605;28;20533;-83
2021/08/27 04:39:52;;;;;;;12.67;10.37;;;;;;;19.69;100.00;94441.13;5024293;28;20520;-83
2021/08/27 04:42:19;;;;;;;12.10;10.80;;;;;;;19.69;100.00;94434.97;5040987;28;20531;-83
2021/08/27 04:44:46;;;;;;;11.00;9.93;;;;;;;19.69;100.00;94438.44;5076037;28;20520;-83
2021/08/27 04:47:13;;;;;;;12.20;11.00;;;;;;;19.74;100.00;94436.03;5075982;28;20439;-83
2021/08/27 04:49:39;;;;;;;13.10;10.20;;;;;;;19.77;100.00;94440.13;5075608;28;20448;-83
2021/08/27 04:52:07;;;;;;;10.53;9.53;;;;;;;19.83;100.00;94447.31;5075600;28;20998;-83
2021/08/27 04:54:34;;;;;;;11.40;10.13;;;;;;;19.82;100.00;94439.53;5075954;28;20433;-83
2021/08/27 04:57:02;;;;;;;12.97;11.10;;;;;;;19.82;100.00;94434.19;5040277;28;20480;-82
2021/08/27 04:59:29;;;;;;;11.63;10.50;;;;;;;19.72;100.00;94424.75;5075675;28;20444;-83
2021/08/27 05:01:59;;;;;;;11.93;10.20;;;;;;;19.75;100.00;94434.19;5075557;28;20441;-83
2021/08/27 05:04:26;;;;;;;12.13;10.93;;;;;;;19.78;100.00;94433.78;5075977;28;20794;-82
2021/08/27 05:06:53;;;;;;;12.40;11.07;;;;;;;19.85;100.00;94431.13;5075410;28;21132;-84
2021/08/27 05:09:20;;;;;;;14.13;10.63;;;;;;;19.90;100.00;94431.38;5075575;28;20452;-83
2021/08/27 05:11:47;;;;;;;11.83;9.87;;;;;;;19.94;100.00;94435.28;5075579;28;20474;-83
2021/08/27 05:14:16;;;;;;;11.60;10.33;;;;;;;20.06;100.00;94447.84;5075262;28;20449;-83
2021/08/27 05:16:43;;;;;;;15.00;11.53;;;;;;;20.11;100.00;94448.06;5075134;28;21014;-83
2021/08/27 05:19:10;;;;;;;13.23;11.00;;;;;;;20.11;100.00;94442.72;5075164;28;20455;-83
2021/08/27 05:21:37;;;;;;;12.33;11.13;;;;;;;20.08;100.00;94437.81;5075357;28;20455;-83
2021/08/27 05:24:05;;;;;;;14.13;12.63;;;;;;;20.08;100.00;94434.31;5006703;28;20433;-83
2021/08/27 05:26:32;;;;;;;17.20;11.73;;;;;;;20.02;100.00;94435.94;5075486;28;20802;-83
2021/08/27 05:28:59;;;;;;;13.00;11.60;;;;;;;19.99;100.00;94435.53;5075054;28;20520;-83
2021/08/27 05:31:28;;;;;;;14.20;12.80;;;;;;;19.95;100.00;94440.44;5075401;28;20459;-83
2021/08/27 05:33:55;;;;;;;13.47;12.13;;;;;;;19.92;100.00;94437.31;5039740;28;20967;-83
2021/08/27 05:36:22;;;;;;;12.30;11.10;;;;;;;19.92;100.00;94434.66;5039817;28;21066;-83
2021/08/27 05:38:49;;;;;;;16.20;13.00;;;;;;;19.97;100.00;94433.06;5074770;28;20453;-83
2021/08/27 05:41:16;;;;;;;14.53;12.77;;;;;;;19.92;100.00;94439.97;5074823;28;20525;-83
2021/08/27 05:43:43;;;;;;;14.40;13.00;;;;;;;19.88;100.00;94444.06;5074723;28;20535;-83
2021/08/27 05:46:10;;;;;;;15.10;13.37;;;;;;;19.89;100.00;94441.19;5074675;28;20451;-84
2021/08/27 05:48:38;;;;;;;16.37;13.07;;;;;;;19.89;100.00;94437.72;5074769;28;20955;-83
2021/08/27 05:51:06;;;;;;;21.60;12.70;;;;;;;19.80;100.00;94432.56;5074458;28;20888;-83
2021/08/27 05:53:33;;;;;;;14.57;12.07;;;;;;;19.76;100.00;94452.63;5074364;28;20481;-83
2021/08/27 05:55:59;;;;;;;18.80;13.17;;;;;;;19.82;100.00;94452.84;5074566;28;20958;-83
2021/08/27 05:58:27;;;;;;;21.53;15.30;;;;;;;19.91;100.00;94448.97;5074284;28;20495;-83
2021/08/27 06:00:56;;;;;;;17.00;14.90;;;;;;;19.94;100.00;94459.25;5074244;28;20440;-83
2021/08/27 06:03:23;;;;;;;15.57;13.80;;;;;;;19.96;100.00;94455.38;5074679;28;20494;-83
2021/08/27 06:05:51;;;;;;;15.57;13.70;;;;;;;20.06;100.00;94465.66;5074520;28;20483;-83
2021/08/27 06:08:18;;;;;;;17.60;15.00;;;;;;;20.14;100.00;94473.47;5074468;28;20440;-83
2021/08/27 06:10:45;;;;;;;17.13;14.93;;;;;;;20.25;100.00;94472.09;5074764;28;20445;-83
2021/08/27 06:13:12;;;;;;;16.67;14.97;;;;;;;20.24;100.00;94475.75;5074125;28;20952;-83
2021/08/27 06:15:42;;;;;;;15.93;14.33;;;;;;;20.20;100.00;94475.34;5074143;28;20530;-83
2021/08/27 06:18:10;;;;;;;17.87;14.93;;;;;;;20.24;100.00;94478.41;5073943;28;20534;-83
2021/08/27 06:20:37;;;;;;;16.00;13.07;;;;;;;20.25;100.00;94488.91;5073941;28;20452;-83
2021/08/27 06:23:05;;;;;;;14.80;13.03;;;;;;;20.27;100.00;94489.53;5073878;28;20448;-83
2021/08/27 06:25:32;;;;;;;14.53;13.03;;;;;;;20.31;100.00;94482.78;5074014;28;20521;-83
2021/08/27 06:27:59;;;;;;;18.80;13.87;;;;;;;20.31;100.00;94479.28;5038700;28;20448;-83
2021/08/27 06:30:26;;;;;;;15.93;14.03;;;;;;;20.30;100.00;94470.47;5073731;28;20465;-83
2021/08/27 06:32:53;;;;;;;16.47;13.87;;;;;;;20.36;100.00;94479.50;5073769;28;20449;-83
2021/08/27 06:35:20;;;;;;;14.57;13.20;;;;;;;20.44;100.00;94479.34;5073768;28;20445;-83
2021/08/27 06:40:33;;;;;;;14.30;12.80;;;;;;;20.64;100.00;94472.22;5073880;28;20426;-83
2021/08/27 06:43:00;;;;;;;15.00;13.33;;;;;;;20.69;100.00;94477.78;5073414;28;20507;-83
2021/08/27 06:45:27;;;;;;;15.37;13.87;;;;;;;20.77;100.00;94476.75;5021994;28;20525;-83
2021/08/27 06:47:54;;;;;;;13.83;12.43;;;;;;;20.85;100.00;94481.09;5073642;28;20446;-83
2021/08/27 06:50:24;;;;;;;14.20;12.80;;;;;;;20.83;100.00;94480.50;5073479;28;20457;-83
2021/08/27 06:52:51;;;;;;;15.27;13.17;;;;;;;20.90;100.00;94471.47;5073096;28;20839;-83
2021/08/27 06:55:18;;;;;;;14.10;12.77;;;;;;;20.88;100.00;94465.50;5073515;28;20946;-83
2021/08/27 06:57:46;;;;;;;15.00;13.57;;;;;;;20.96;100.00;94470.63;5073172;28;21079;-83
2021/08/27 07:00:15;;;;;;;15.50;13.90;;;;;;;21.07;100.00;94473.72;5073301;28;20548;-83
2021/08/27 07:02:43;;;;;;;15.70;14.03;;;;;;;21.15;100.00;94478.88;5073900;28;20482;-83
2021/08/27 07:05:11;;;;;;;14.57;12.93;;;;;;;21.01;100.00;94481.50;5073139;28;20454;-83
2021/08/27 07:07:38;;;;;;;15.10;13.10;;;;;;;21.31;100.00;94484.63;5073189;28;20435;-83
2021/08/27 07:10:06;;;;;;;13.30;11.90;;;;;;;21.71;100.00;94489.97;5073065;28;20798;-83
2021/08/27 07:12:33;;;;;;;13.80;12.50;;;;;;;21.99;97.69;94491.53;5073007;28;20947;-83
2021/08/27 07:15:02;;;;;;;14.30;12.77;;;;;;;22.35;95.93;94488.34;5073478;28;20442;-83
2021/08/27 07:17:29;;;;;;;15.37;13.70;;;;;;;22.54;94.54;94490.09;5072722;28;20848;-83
2021/08/27 07:19:56;;;;;;;15.57;13.47;;;;;;;22.82;91.20;94492.44;5073430;28;20473;-82
2021/08/27 07:22:23;;;;;;;15.07;12.90;;;;;;;23.21;92.37;94493.25;5072890;28;20459;-82
2021/08/27 07:24:50;;;;;;;17.40;14.40;;;;;;;23.62;92.04;94487.34;5073070;28;20446;-82
2021/08/27 07:27:17;;;;;;;23.47;14.63;;;;;;;24.08;86.08;94503.00;5072671;28;20877;-83
2021/08/27 07:29:44;;;;;;;17.97;14.90;;;;;;;24.48;82.93;94510.59;5072948;28;20455;-82
2021/08/27 07:32:12;;;;;;;21.57;15.33;;;;;;;24.83;82.06;94510.75;5072944;28;20448;-82
2021/08/27 07:34:40;;;;;;;30.90;19.83;;;;;;;25.17;81.77;94518.19;5072646;28;20482;-81
2021/08/27 07:37:08;;;;;;;20.83;17.07;;;;;;;25.49;81.52;94510.66;5072546;28;20911;-82
2021/08/27 07:39:35;;;;;;;16.30;14.60;;;;;;;25.60;79.35;94511.72;5072060;28;21026;-82
2021/08/27 07:42:02;;;;;;;16.77;15.17;;;;;;;25.64;78.90;94515.56;5072911;28;20431;-82
2021/08/27 07:44:29;;;;;;;15.40;13.77;;;;;;;25.36;79.10;94518.09;5073074;28;20445;-82
2021/08/27 07:46:56;;;;;;;16.10;14.43;;;;;;;25.08;77.11;94513.34;5072054;28;20452;-82
2021/08/27 07:49:25;;;;;;;16.03;14.27;;;;;;;25.16;78.18;94513.88;5071924;28;20536;-82
2021/08/27 07:51:53;;;;;;;15.07;13.47;;;;;;;25.46;78.76;94511.13;5037329;28;20472;-82
2021/08/27 07:54:20;;;;;;;14.43;13.17;;;;;;;25.70;78.81;94511.16;5072510;28;20425;-82
2021/08/27 07:56:48;;;;;;;16.83;15.03;;;;;;;25.85;78.88;94512.34;5072380;28;20447;-82
2021/08/27 07:59:14;;;;;;;17.53;15.50;;;;;;;25.83;76.89;94508.28;5072420;28;20459;-82
2021/08/27 08:01:42;;;;;;;21.43;15.80;;;;;;;25.90;76.22;94515.16;5072561;28;20445;-82
2021/08/27 08:04:09;;;;;;;15.67;14.07;;;;;;;26.11;74.94;94519.13;5072204;28;20789;-82
2021/08/27 08:06:38;;;;;;;17.83;14.23;;;;;;;26.20;74.67;94517.72;5037321;28;20448;-82
2021/08/27 08:09:05;;;;;;;16.03;14.50;;;;;;;25.73;75.38;94508.81;5072031;28;20832;-82
2021/08/27 08:11:33;;;;;;;16.33;14.73;;;;;;;25.40;74.43;94501.28;5072245;28;20453;-83
2021/08/27 08:14:00;;;;;;;15.53;13.20;;;;;;;25.61;75.06;94506.09;5072400;28;20534;-82
2021/08/27 08:16:27;;;;;;;17.17;15.33;;;;;;;25.55;74.33;94503.53;5072268;28;20451;-83
2021/08/27 08:18:54;;;;;;;14.37;12.97;;;;;;;25.64;74.85;94512.88;5072087;28;20490;-83
2021/08/27 08:21:23;;;;;;;16.80;13.90;;;;;;;25.71;76.10;94520.88;5072168;28;20535;-83
2021/08/27 08:23:56;;;;;;;16.37;14.70;;;;;;;25.70;75.68;94516.53;5072157;28;20818;-83
2021/08/27 08:26:24;;;;;;;14.50;13.10;;;;;;;25.90;77.55;94512.47;5072202;28;20535;-82
2021/08/27 08:28:52;;;;;;;27.20;15.50;;;;;;;26.08;76.79;94510.72;5071878;28;20543;-83
2021/08/27 08:31:20;;;;;;;16.60;15.00;;;;;;;26.07;76.43;94507.22;5072220;28;20460;-82
2021/08/27 08:33:48;;;;;;;15.90;13.83;;;;;;;25.72;74.79;94504.50;5072131;28;21062;-82
2021/08/27 08:36:16;;;;;;;17.07;13.83;;;;;;;26.01;76.06;94491.19;5072010;28;20451;-82
2021/08/27 08:38:43;;;;;;;15.27;13.70;;;;;;;26.06;75.12;94486.75;5072010;28;20491;-83
2021/08/27 08:41:12;;;;;;;17.20;15.07;;;;;;;25.72;76.24;94482.19;5071929;28;20940;-83
2021/08/27 08:43:39;;;;;;;18.70;14.30;;;;;;;25.14;77.21;94491.75;5071922;28;20484;-83
2021/08/27 08:46:06;;;;;;;17.77;15.93;;;;;;;25.11;79.50;94486.03;5036775;28;20453;-83
2021/08/27 08:48:34;;;;;;;20.20;15.10;;;;;;;25.35;81.11;94474.28;5071920;28;20449;-83
2021/08/27 08:51:03;;;;;;;16.00;14.50;;;;;;;25.65;78.71;94482.28;5072132;28;20540;-83
2021/08/27 08:53:34;;;;;;;13.83;12.43;;;;;;;25.90;77.14;94484.75;5036887;28;20482;-83
2021/08/27 08:56:02;;;;;;;14.93;13.47;;;;;;;26.14;77.44;94481.00;5037810;28;20456;-83
2021/08/27 08:58:31;;;;;;;15.47;13.87;;;;;;;26.05;75.55;94476.22;5071665;28;20934;-82
2021/08/27 09:00:58;;;;;;;16.97;15.20;;;;;;;25.83;76.02;94482.19;5039960;28;20516;-82
2021/08/27 09:03:25;;;;;;;16.30;14.70;;;;;;;25.50;77.11;94485.44;5075423;28;20451;-82
2021/08/27 09:05:53;;;;;;;17.03;15.33;;;;;;;25.69;79.12;94480.78;5075291;28;20451;-82
2021/08/27 09:08:33;;;;;;;17.20;15.40;;;;;;;25.92;76.76;94480.78;5075568;28;20532;-82
2021/08/27 09:11:01;;;;;;;17.90;16.00;;;;;;;25.96;76.72;94488.38;5075538;28;20483;-83
2021/08/27 09:13:33;;;;;;;20.27;14.97;;;;;;;26.25;75.53;94490.09;5075670;28;20443;-83
2021/08/27 09:16:08;;;;;;;17.80;16.00;;;;;;;26.60;75.36;94482.00;5075283;28;20527;-83
2021/08/27 09:18:40;;;;;;;17.13;14.20;;;;;;;26.78;72.91;94492.56;5075166;28;20486;-82
2021/08/27 09:21:26;;;;;;;19.83;15.50;;;;;;;26.70;73.97;94484.06;5075376;28;20463;-82
2021/08/27 09:24:12;;;;;;;15.97;14.57;;;;;;;26.92;73.32;94481.53;5075122;28;20524;-82
2021/08/27 09:26:40;;;;;;;18.00;15.83;;;;;;;26.62;72.54;94473.69;5074871;28;20935;-82
2021/08/27 09:29:08;;;;;;;17.00;15.30;;;;;;;26.71;74.98;94474.94;5074981;28;20473;-82
2021/08/27 09:31:38;;;;;;;17.30;15.50;;;;;;;26.63;74.45;94469.94;5039381;28;20528;-82
2021/08/27 09:34:05;;;;;;;18.53;15.70;;;;;;;26.69;70.62;94469.78;5075205;28;20528;-82
2021/08/27 09:36:33;;;;;;;18.70;14.63;;;;;;;26.50;72.50;94469.13;5074758;28;20443;-82
2021/08/27 09:39:02;;;;;;;17.60;14.90;;;;;;;25.92;74.33;94461.97;5074682;28;20486;-82
2021/08/27 09:41:29;;;;;;;16.60;14.67;;;;;;;26.04;75.10;94455.78;5074535;28;20528;-82
2021/08/27 09:43:58;;;;;;;18.33;15.80;;;;;;;26.38;75.62;94456.78;5075142;28;20519;-82
2021/08/27 09:46:34;;;;;;;16.53;14.80;;;;;;;26.57;74.72;94462.78;5074892;28;20543;-82
2021/08/27 09:49:02;;;;;;;16.50;13.67;;;;;;;26.52;73.19;94453.56;5074741;28;20530;-82
2021/08/27 09:51:46;;;;;;;17.80;14.40;;;;;;;26.13;73.46;94462.41;5074163;28;20443;-82
2021/08/27 09:54:22;;;;;;;17.40;15.70;;;;;;;26.25;72.15;94455.94;5074371;28;20472;-82
2021/08/27 09:56:53;;;;;;;17.83;15.50;;;;;;;26.27;74.22;94453.00;5074559;28;20872;-82
2021/08/27 09:59:35;;;;;;;16.73;14.60;;;;;;;26.51;73.98;94443.03;5074730;28;20485;-82
2021/08/27 10:02:04;;;;;;;17.20;14.87;;;;;;;26.69;72.95;94440.16;5074326;28;20532;-82
2021/08/27 10:04:32;;;;;;;15.93;14.23;;;;;;;26.82;72.73;94434.47;5038776;28;20835;-82
2021/08/27 10:06:59;;;;;;;18.20;14.57;;;;;;;26.84;74.81;94426.97;5074357;28;20436;-81
2021/08/27 10:09:44;;;;;;;17.30;14.70;;;;;;;26.66;72.19;94435.28;5074452;28;20443;-81
2021/08/27 10:12:12;;;;;;;17.50;14.83;;;;;;;26.86;70.71;94430.25;5073518;28;20528;-81
2021/08/27 10:14:40;;;;;;;14.77;13.33;;;;;;;26.99;72.16;94434.56;5038943;28;20449;-82
2021/08/27 10:17:09;;;;;;;16.63;14.80;;;;;;;27.06;70.53;94423.63;5074003;28;20528;-82
2021/08/27 10:19:36;;;;;;;17.23;15.27;;;;;;;27.15;69.42;94414.06;5074382;28;20490;-82
2021/08/27 10:22:03;;;;;;;20.80;14.50;;;;;;;27.15;70.92;94416.75;5074179;28;20480;-82
2021/08/27 10:24:30;;;;;;;14.97;13.57;;;;;;;27.06;70.21;94413.66;5074285;28;20971;-82
2021/08/27 10:26:58;;;;;;;16.13;14.30;;;;;;;27.09;72.20;94407.78;5073852;28;20444;-82
2021/08/27 10:29:26;;;;;;;15.37;13.77;;;;;;;27.10;70.54;94416.69;5074060;28;20519;-82
2021/08/27 10:31:54;;;;;;;18.50;13.80;;;;;;;27.13;69.87;94413.50;5073980;28;20449;-82
2021/08/27 10:34:41;;;;;;;15.77;13.40;;;;;;;27.14;68.98;94415.94;5073763;28;21022;-82
2021/08/27 10:37:08;;;;;;;16.33;14.73;;;;;;;27.13;68.96;94411.63;5073728;28;20539;-82
2021/08/27 10:39:41;;;;;;;14.70;12.87;;;;;;;27.10;70.36;94409.41;5073536;28;20490;-82
2021/08/27 10:42:10;;;;;;;14.43;12.93;;;;;;;27.07;68.18;94420.69;5073733;28;20456;-82
2021/08/27 10:44:51;;;;;;;14.17;12.77;;;;;;;26.91;68.79;94420.66;5073751;28;20449;-82
2021/08/27 10:47:19;;;;;;;15.10;13.63;;;;;;;26.69;69.87;94413.25;5073345;28;21003;-82
2021/08/27 10:49:58;;;;;;;15.20;13.80;;;;;;;26.81;71.28;94405.09;5073977;28;20498;-82
2021/08/27 10:52:37;;;;;;;15.47;13.80;;;;;;;26.78;67.74;94394.81;5072974;28;20512;-82
2021/08/27 10:55:10;;;;;;;17.60;14.20;;;;;;;26.79;67.67;94393.75;5021651;28;20519;-82
2021/08/27 10:57:45;;;;;;;14.23;12.80;;;;;;;26.83;67.71;94392.22;5073286;28;20459;-82
2021/08/27 11:00:13;;;;;;;13.73;12.33;;;;;;;26.89;66.36;94396.66;5073521;28;20480;-82
2021/08/27 11:02:52;;;;;;;16.50;14.10;;;;;;;26.84;67.60;94388.47;5073271;28;20539;-82
2021/08/27 11:05:48;;;;;;;16.03;14.33;;;;;;;26.89;67.95;94379.66;5073232;28;20976;-82
2021/08/27 11:08:17;;;;;;;15.60;14.10;;;;;;;26.91;67.17;94385.63;4962499;28;20451;-82
2021/08/27 11:10:45;;;;;;;14.53;13.07;;;;;;;26.97;66.93;94377.41;5011367;28;20471;-82
2021/08/27 11:13:14;;;;;;;18.43;14.30;;;;;;;27.11;64.62;94380.59;5011327;28;20443;-82
2021/08/27 11:15:42;;;;;;;16.57;14.23;;;;;;;27.17;65.93;94385.00;5011207;28;20956;-82
2021/08/27 11:18:34;;;;;;;16.90;14.60;;;;;;;27.26;66.10;94388.13;5011253;28;20570;-82
2021/08/27 11:21:30;;;;;;;14.93;13.43;;;;;;;27.25;64.96;94390.00;4953112;29;20833;-82
2021/08/27 11:24:13;;;;;;;15.90;14.40;;;;;;;27.21;65.00;94388.06;4952810;29;20958;-82
2021/08/27 11:26:42;;;;;;;16.43;14.23;;;;;;;27.28;63.58;94397.59;4952882;29;20481;-82